createdAt,value
2022-10-07T00:01:25.356Z,99542.09
2022-10-07T00:03:54.598Z,99546.19
2022-10-07T00:06:24.464Z,99550.78
2022-10-07T00:08:55.037Z,99553.31
2022-10-07T00:11:26.540Z,99555.88
2022-10-07T00:14:00.383Z,99550.25
2022-10-07T00:16:31.851Z,99551.25
2022-10-07T00:19:03.373Z,99551.81
2022-10-07T00:21:34.841Z,99538.03
2022-10-07T00:24:04.128Z,99553.06
2022-10-07T00:26:35.648Z,99552.03
2022-10-07T00:29:06.139Z,99561.72
2022-10-07T00:31:37.403Z,99562.75
2022-10-07T00:34:06.977Z,99563.78
2022-10-07T00:36:38.911Z,99563.53
2022-10-07T00:39:11.620Z,99567.34
2022-10-07T00:41:46.355Z,99577.06
2022-10-07T00:44:33.179Z,99588.03
2022-10-07T00:47:06.274Z,99579.59
2022-10-07T00:49:48.338Z,99585.97
2022-10-07T00:52:18.541Z,99589.78
2022-10-07T00:54:47.745Z,99594.88
2022-10-07T00:57:16.220Z,99599.72
2022-10-07T00:59:44.743Z,99608.16
2022-10-07T01:02:13.143Z,99599.47
2022-10-07T01:04:43.439Z,99600.50
2022-10-07T01:07:12.084Z,99598.19
2022-10-07T01:09:40.448Z,99606.59
2022-10-07T01:12:20.896Z,99594.84
2022-10-07T01:14:57.604Z,99607.09
2022-10-07T01:17:42.871Z,99608.09
2022-10-07T01:20:26.483Z,99608.84
2022-10-07T01:23:03.467Z,99606.56
2022-10-07T01:25:52.937Z,99599.66
2022-10-07T01:28:37.534Z,99606.78
2022-10-07T01:31:10.397Z,99595.28
2022-10-07T01:33:42.411Z,99600.63
2022-10-07T01:36:16.421Z,99606.25
2022-10-07T01:38:54.152Z,99597.03
2022-10-07T01:41:24.174Z,99598.56
2022-10-07T01:43:55.546Z,99606.22
2022-10-07T01:46:28.660Z,99606.19
2022-10-07T01:48:58.384Z,99594.44
2022-10-07T01:51:31.236Z,99593.88
2022-10-07T01:54:07.483Z,99603.06
2022-10-07T01:56:48.248Z,99594.06
2022-10-07T01:59:25.231Z,99594.84
2022-10-07T02:02:05.158Z,99592.50
2022-10-07T02:05:00.189Z,99590.69
2022-10-07T02:07:53.220Z,99598.88
2022-10-07T02:10:30.541Z,99595.50
2022-10-07T02:13:37.583Z,99588.59
2022-10-07T02:16:08.556Z,99593.94
2022-10-07T02:18:44.797Z,99586.50
2022-10-07T02:21:13.734Z,99585.69
2022-10-07T02:23:46.172Z,99578.75
2022-10-07T02:26:18.924Z,99576.44
2022-10-07T02:28:50.774Z,99576.13
2022-10-07T02:31:25.186Z,99583.28
2022-10-07T02:33:58.149Z,99581.16
2022-10-07T02:36:32.064Z,99581.88
2022-10-07T02:39:02.255Z,99585.41
2022-10-07T02:41:50.545Z,99588.69
2022-10-07T02:44:40.111Z,99588.13
2022-10-07T02:47:18.712Z,99585.75
2022-10-07T02:49:54.162Z,99578.25
2022-10-07T02:52:24.866Z,99574.88
2022-10-07T02:55:05.432Z,99568.19
2022-10-07T02:57:40.592Z,99570.69
2022-10-07T03:00:11.434Z,99565.31
2022-10-07T03:02:58.350Z,99558.06
2022-10-07T03:05:27.525Z,99567.00
2022-10-07T03:08:01.514Z,99567.44
2022-10-07T03:10:30.124Z,99559.72
2022-10-07T03:12:58.761Z,99558.38
2022-10-07T03:15:28.417Z,99560.13
2022-10-07T03:17:56.808Z,99557.25
2022-10-07T03:20:25.193Z,99557.69
2022-10-07T03:22:53.579Z,99554.59
2022-10-07T03:25:22.052Z,99556.88
2022-10-07T03:27:50.376Z,99557.59
2022-10-07T03:30:24.333Z,99552.94
2022-10-07T03:32:53.150Z,99556.22
2022-10-07T03:35:21.544Z,99554.06
2022-10-07T03:37:50.067Z,99544.22
2022-10-07T03:40:19.741Z,99540.34
2022-10-07T03:42:48.988Z,99550.03
2022-10-07T03:45:17.499Z,99541.25
2022-10-07T03:47:46.185Z,99537.63
2022-10-07T03:50:14.986Z,99532.66
2022-10-07T03:52:45.080Z,99537.66
2022-10-07T03:55:13.428Z,99519.16
2022-10-07T03:57:59.676Z,99518.84
2022-10-07T04:00:29.192Z,99517.44
2022-10-07T04:02:57.891Z,99515.50
2022-10-07T04:05:26.399Z,99513.34
2022-10-07T04:07:55.646Z,99511.97
2022-10-07T04:10:25.724Z,99507.22
2022-10-07T04:12:54.600Z,99518.31
2022-10-07T04:15:23.243Z,99508.13
2022-10-07T04:18:00.164Z,99506.94
2022-10-07T04:20:28.459Z,99514.75
2022-10-07T04:22:56.882Z,99505.97
2022-10-07T04:25:38.591Z,99505.09
2022-10-07T04:28:09.741Z,99504.56
2022-10-07T04:30:44.701Z,99498.59
2022-10-07T04:33:14.386Z,99484.66
2022-10-07T04:35:43.967Z,99489.47
2022-10-07T04:38:14.596Z,99481.84
2022-10-07T04:40:45.220Z,99478.03
2022-10-07T04:43:25.426Z,99469.00
2022-10-07T04:46:03.442Z,99464.00
2022-10-07T04:48:32.053Z,99460.81
2022-10-07T04:51:08.795Z,99463.41
2022-10-07T04:53:38.659Z,99461.78
2022-10-07T04:56:07.732Z,99457.16
2022-10-07T04:58:37.366Z,99454.56
2022-10-07T05:01:10.817Z,99452.72
2022-10-07T05:03:40.942Z,99446.94
2022-10-07T05:06:10.479Z,99445.56
2022-10-07T05:08:39.018Z,99439.06
2022-10-07T05:11:07.503Z,99428.63
2022-10-07T05:13:38.826Z,99428.44
2022-10-07T05:16:10.423Z,99418.22
2022-10-07T05:18:40.349Z,99413.88
2022-10-07T05:21:09.585Z,99402.44
2022-10-07T05:23:38.096Z,99402.75
2022-10-07T05:26:11.472Z,99397.56
2022-10-07T05:28:41.138Z,99386.06
2022-10-07T05:31:12.826Z,99373.31
2022-10-07T05:33:41.911Z,99371.78
2022-10-07T05:36:13.122Z,99369.94
2022-10-07T05:38:41.526Z,99363.50
2022-10-07T05:41:13.136Z,99355.59
2022-10-07T05:43:47.629Z,99352.97
2022-10-07T05:46:18.370Z,99346.53
2022-10-07T05:48:52.035Z,99337.31
2022-10-07T05:51:21.679Z,99332.41
2022-10-07T05:53:50.599Z,99332.06
2022-10-07T05:56:23.700Z,99327.38
2022-10-07T05:58:53.554Z,99325.53
2022-10-07T06:01:23.983Z,99310.66
2022-10-07T06:03:55.155Z,99310.31
2022-10-07T06:06:23.675Z,99303.53
2022-10-07T06:08:53.906Z,99294.31
2022-10-07T06:11:40.990Z,99289.81
2022-10-07T06:14:09.358Z,99290.00
2022-10-07T06:16:37.854Z,99277.16
2022-10-07T06:19:23.287Z,99263.03
2022-10-07T06:21:52.391Z,99259.06
2022-10-07T06:24:21.222Z,99249.28
2022-10-07T06:26:50.794Z,99240.03
2022-10-07T06:29:19.222Z,99238.72
2022-10-07T06:31:47.633Z,99234.38
2022-10-07T06:34:16.185Z,99227.94
2022-10-07T06:36:44.671Z,99210.78
2022-10-07T06:39:13.026Z,99213.41
2022-10-07T06:41:42.150Z,99208.50
2022-10-07T06:44:10.573Z,99200.97
2022-10-07T06:46:39.005Z,99204.38
2022-10-07T06:49:07.520Z,99189.25
2022-10-07T06:51:35.935Z,99180.56
2022-10-07T06:54:04.380Z,99179.06
2022-10-07T06:56:32.859Z,99180.38
2022-10-07T06:59:04.226Z,99170.59
2022-10-07T07:01:32.856Z,99172.09
2022-10-07T07:04:01.355Z,99167.19
2022-10-07T07:06:30.137Z,99156.63
2022-10-07T07:09:01.779Z,99156.81
2022-10-07T07:11:39.230Z,99148.34
2022-10-07T07:14:13.029Z,99147.38
2022-10-07T07:16:41.744Z,99152.88
2022-10-07T07:19:13.056Z,99140.81
2022-10-07T07:21:42.039Z,99145.16
2022-10-07T07:24:10.873Z,99146.47
2022-10-07T07:26:41.377Z,99143.63
2022-10-07T07:29:12.669Z,99139.69
2022-10-07T07:31:41.184Z,99133.06
2022-10-07T07:34:15.414Z,99133.81
2022-10-07T07:36:52.076Z,99133.06
2022-10-07T07:39:21.768Z,99128.53
2022-10-07T07:41:51.790Z,99124.00
2022-10-07T07:44:20.485Z,99123.06
2022-10-07T07:46:53.102Z,99107.59
2022-10-07T07:49:23.580Z,99112.50
2022-10-07T07:51:52.143Z,99103.06
2022-10-07T07:54:20.598Z,99094.19
2022-10-07T07:56:48.981Z,99101.34
2022-10-07T07:59:18.034Z,99098.31
2022-10-07T08:01:46.778Z,99096.25
2022-10-07T08:04:17.383Z,99090.59
2022-10-07T08:06:46.205Z,99091.16
2022-10-07T08:09:14.667Z,99090.41
2022-10-07T08:11:47.262Z,99095.28
2022-10-07T08:14:17.197Z,99084.53
2022-10-07T08:16:45.979Z,99078.88
2022-10-07T08:19:14.492Z,99081.53
2022-10-07T08:21:43.555Z,99076.41
2022-10-07T08:24:15.020Z,99075.09
2022-10-07T08:26:43.632Z,99082.28
2022-10-07T08:29:12.306Z,99081.72
2022-10-07T08:31:43.019Z,99080.97
2022-10-07T08:34:12.673Z,99074.53
2022-10-07T08:36:41.506Z,99074.53
2022-10-07T08:39:11.659Z,99072.28
2022-10-07T08:41:45.033Z,99079.03
2022-10-07T08:44:19.095Z,99070.34
2022-10-07T08:47:07.228Z,99073.53
2022-10-07T08:49:39.115Z,99086.16
2022-10-07T08:52:33.689Z,99080.28
2022-10-07T08:55:03.094Z,99083.34
2022-10-07T08:57:53.514Z,99096.00
2022-10-07T09:00:34.163Z,99109.44
2022-10-07T09:03:20.363Z,99109.06
2022-10-07T09:05:54.578Z,99122.25
2022-10-07T09:08:44.829Z,99132.44
2022-10-07T09:11:26.458Z,99129.13
2022-10-07T09:14:00.886Z,99130.34
2022-10-07T09:16:37.252Z,99120.97
2022-10-07T09:19:06.408Z,99115.88
2022-10-07T09:21:42.545Z,99113.97
2022-10-07T09:24:29.249Z,99120.81
2022-10-07T09:27:01.111Z,99126.19
2022-10-07T09:29:31.672Z,99129.94
2022-10-07T09:32:00.248Z,99134.09
2022-10-07T09:34:31.588Z,99135.56
2022-10-07T09:37:28.526Z,99135.06
2022-10-07T09:40:17.858Z,99143.19
2022-10-07T09:42:50.724Z,99144.69
2022-10-07T09:45:32.823Z,99138.97
2022-10-07T09:48:09.070Z,99136.03
2022-10-07T09:50:41.140Z,99145.31
2022-10-07T09:53:23.504Z,99155.59
2022-10-07T09:55:55.525Z,99153.31
2022-10-07T09:58:28.611Z,99151.03
2022-10-07T10:01:13.410Z,99148.75
2022-10-07T10:03:42.347Z,99152.13
2022-10-07T10:06:12.215Z,99157.22
2022-10-07T10:08:44.263Z,99160.03
2022-10-07T10:11:21.889Z,99153.84
2022-10-07T10:13:52.950Z,99156.13
2022-10-07T10:16:27.718Z,99149.97
2022-10-07T10:18:59.834Z,99151.47
2022-10-07T10:21:37.673Z,99155.81
2022-10-07T10:24:17.352Z,99153.75
2022-10-07T10:27:11.049Z,99163.72
2022-10-07T10:30:05.801Z,99167.31
2022-10-07T10:33:11.069Z,99177.81
2022-10-07T10:35:56.145Z,99183.97
2022-10-07T10:38:52.224Z,99195.25
2022-10-07T10:41:41.018Z,99199.16
2022-10-07T10:44:39.166Z,99203.03
2022-10-07T10:47:19.314Z,99215.38
2022-10-07T10:50:03.793Z,99205.75
2022-10-07T10:52:47.462Z,99204.75
2022-10-07T10:55:19.159Z,99209.94
2022-10-07T10:57:56.815Z,99211.03
2022-10-07T11:00:46.108Z,99212.84
2022-10-07T11:03:17.485Z,99204.16
2022-10-07T11:05:48.847Z,99201.13
2022-10-07T11:08:37.685Z,99197.34
2022-10-07T11:11:19.067Z,99200.47
2022-10-07T11:13:55.414Z,99193.84
2022-10-07T11:16:32.617Z,99198.50
2022-10-07T11:19:23.080Z,99205.97
2022-10-07T11:21:53.873Z,99219.81
2022-10-07T11:24:33.826Z,99227.28
2022-10-07T11:27:17.964Z,99219.91
2022-10-07T11:29:58.293Z,99221.72
2022-10-07T11:32:39.741Z,99236.31
2022-10-07T11:35:33.672Z,99245.59
2022-10-07T11:38:18.349Z,99251.53
2022-10-07T11:40:51.831Z,99260.28
2022-10-07T11:43:29.907Z,99266.22
2022-10-07T11:46:09.199Z,99272.38
2022-10-07T11:48:51.564Z,99274.94
2022-10-07T11:51:30.282Z,99272.66
2022-10-07T11:54:03.896Z,99273.22
2022-10-07T11:56:45.884Z,99276.28
2022-10-07T11:59:35.806Z,99276.06
2022-10-07T12:02:04.655Z,99293.47
2022-10-07T12:04:36.287Z,99306.56
2022-10-07T12:07:38.585Z,99320.41
2022-10-07T12:10:23.216Z,99325.03
2022-10-07T12:13:00.371Z,99325.56
2022-10-07T12:15:37.641Z,99326.63
2022-10-07T12:18:05.999Z,99330.50
2022-10-07T12:20:52.371Z,99337.41
2022-10-07T12:23:23.550Z,99356.56
2022-10-07T12:26:00.464Z,99363.50
2022-10-07T12:28:38.826Z,99371.16
2022-10-07T12:31:16.455Z,99382.19
2022-10-07T12:33:47.853Z,99392.69
2022-10-07T12:36:26.715Z,99404.69
2022-10-07T12:39:00.643Z,99417.78
2022-10-07T12:41:31.077Z,99418.91
2022-10-07T12:44:37.148Z,99422.06
2022-10-07T12:47:15.097Z,99440.31
2022-10-07T12:50:01.555Z,99431.44
2022-10-07T12:52:38.654Z,99433.31
2022-10-07T12:55:30.246Z,99458.94
2022-10-07T12:58:18.400Z,99463.34
2022-10-07T13:01:17.985Z,99473.66
2022-10-07T13:04:04.713Z,99472.72
2022-10-07T13:07:11.418Z,99472.47
2022-10-07T13:10:12.885Z,99454.38
2022-10-07T13:13:00.000Z,99451.59
2022-10-07T13:15:55.140Z,99464.34
2022-10-07T13:18:34.236Z,99471.47
2022-10-07T13:21:38.616Z,99467.63
2022-10-07T13:24:07.203Z,99471.44
2022-10-07T13:26:36.230Z,99468.91
2022-10-07T13:29:05.855Z,99471.44
2022-10-07T13:31:35.568Z,99470.41
2022-10-07T13:34:17.397Z,99475.78
2022-10-07T13:36:45.679Z,99480.34
2022-10-07T13:39:17.023Z,99489.28
2022-10-07T13:41:49.042Z,99493.34
2022-10-07T13:44:20.813Z,99503.28
2022-10-07T13:47:04.755Z,99494.88
2022-10-07T13:49:41.972Z,99495.63
2022-10-07T13:52:25.787Z,99489.53
2022-10-07T13:54:54.771Z,99493.34
2022-10-07T13:57:24.566Z,99492.06
2022-10-07T13:59:53.110Z,99494.13
2022-10-07T14:02:21.987Z,99510.16
2022-10-07T14:05:00.858Z,99520.59
2022-10-07T14:07:30.225Z,99518.31
2022-10-07T14:10:01.622Z,99519.06
2022-10-07T14:12:41.852Z,99533.34
2022-10-07T14:15:22.922Z,99529.28
2022-10-07T14:17:56.047Z,99529.53
2022-10-07T14:20:31.526Z,99524.69
2022-10-07T14:23:29.203Z,99519.34
2022-10-07T14:26:03.190Z,99522.41
2022-10-07T14:28:34.191Z,99517.81
2022-10-07T14:31:26.957Z,99531.31
2022-10-07T14:34:16.575Z,99527.50
2022-10-07T14:37:15.331Z,99533.38
2022-10-07T14:39:45.341Z,99540.03
2022-10-07T14:42:19.026Z,99540.31
2022-10-07T14:44:48.779Z,99547.16
2022-10-07T14:47:22.341Z,99549.47
2022-10-07T14:49:52.564Z,99553.81
2022-10-07T14:52:32.491Z,99565.28
2022-10-07T14:55:05.067Z,99572.41
2022-10-07T14:57:33.368Z,99578.78
2022-10-07T15:00:01.752Z,99578.78
2022-10-07T15:02:30.226Z,99578.78
2022-10-07T15:04:58.658Z,99582.34
2022-10-07T15:07:27.074Z,99586.44
2022-10-07T15:09:55.447Z,99592.03
2022-10-07T15:12:23.882Z,99584.91
2022-10-07T15:14:52.335Z,99580.06
2022-10-07T15:17:21.308Z,99580.06
2022-10-07T15:19:49.684Z,99583.63
2022-10-07T15:22:18.578Z,99586.69
2022-10-07T15:24:47.071Z,99583.38
2022-10-07T15:27:16.340Z,99579.81
2022-10-07T15:29:44.658Z,99576.50
2022-10-07T15:32:13.091Z,99570.38
2022-10-07T15:34:41.509Z,99569.09
2022-10-07T15:37:10.281Z,99568.59
2022-10-07T15:39:39.815Z,99557.38
2022-10-07T15:42:21.462Z,99558.91
2022-10-07T15:44:50.925Z,99562.47
2022-10-07T15:47:19.350Z,99549.22
2022-10-07T15:49:47.753Z,99552.78
2022-10-07T15:52:16.426Z,99547.94
2022-10-07T15:54:47.229Z,99542.34
2022-10-07T15:57:16.806Z,99537.50
2022-10-07T15:59:46.097Z,99537.00
2022-10-07T16:02:22.227Z,99523.72
2022-10-07T16:04:50.787Z,99525.25
2022-10-07T16:07:19.225Z,99521.97
2022-10-07T16:09:47.659Z,99519.16
2022-10-07T16:12:16.382Z,99521.47
2022-10-07T16:14:44.896Z,99521.47
2022-10-07T16:17:13.932Z,99525.78
2022-10-07T16:19:42.324Z,99527.31
2022-10-07T16:22:10.879Z,99523.00
2022-10-07T16:24:40.651Z,99528.09
2022-10-07T16:27:09.077Z,99527.56
2022-10-07T16:29:55.736Z,99531.91
2022-10-07T16:32:24.644Z,99534.97
2022-10-07T16:34:53.017Z,99544.91
2022-10-07T16:37:21.421Z,99549.25
2022-10-07T16:39:49.846Z,99553.56
2022-10-07T16:42:18.279Z,99553.56
2022-10-07T16:44:50.652Z,99560.72
2022-10-07T16:47:19.348Z,99551.78
2022-10-07T16:49:47.739Z,99551.28
2022-10-07T16:52:16.730Z,99557.66
2022-10-07T16:54:45.139Z,99561.22
2022-10-07T16:57:14.652Z,99559.94
2022-10-07T16:59:43.135Z,99551.53
2022-10-07T17:02:11.611Z,99559.44
2022-10-07T17:04:40.017Z,99549.75
2022-10-07T17:07:08.418Z,99552.53
2022-10-07T17:09:36.788Z,99552.03
2022-10-07T17:12:07.763Z,99547.19
2022-10-07T17:14:36.228Z,99547.97
2022-10-07T17:17:06.060Z,99536.72
2022-10-07T17:19:35.693Z,99541.59
2022-10-07T17:22:05.057Z,99540.31
2022-10-07T17:24:33.413Z,99531.88
2022-10-07T17:27:01.745Z,99542.59
2022-10-07T17:29:31.809Z,99534.19
2022-10-07T17:32:00.194Z,99534.94
2022-10-07T17:34:28.590Z,99534.94
2022-10-07T17:36:59.615Z,99527.28
2022-10-07T17:39:28.253Z,99528.06
2022-10-07T17:41:56.619Z,99525.25
2022-10-07T17:44:25.051Z,99532.41
2022-10-07T17:46:53.538Z,99529.63
2022-10-07T17:49:22.057Z,99527.56
2022-10-07T17:51:50.435Z,99527.56
2022-10-07T17:54:18.979Z,99519.16
2022-10-07T17:56:48.549Z,99514.78
2022-10-07T17:59:17.827Z,99516.34
2022-10-07T18:01:46.585Z,99516.84
2022-10-07T18:04:24.522Z,99515.31
2022-10-07T18:06:53.598Z,99509.44
2022-10-07T18:09:23.696Z,99507.91
2022-10-07T18:12:10.355Z,99504.34
2022-10-07T18:14:56.920Z,99504.84
2022-10-07T18:17:25.370Z,99499.75
2022-10-07T18:19:53.957Z,99490.59
2022-10-07T18:22:22.928Z,99479.13
2022-10-07T18:24:51.637Z,99476.06
2022-10-07T18:27:22.682Z,99480.13
2022-10-07T18:29:51.106Z,99477.34
2022-10-07T18:32:19.459Z,99480.66
2022-10-07T18:34:48.367Z,99472.75
2022-10-07T18:37:17.589Z,99471.22
2022-10-07T18:39:45.993Z,99470.47
2022-10-07T18:42:14.363Z,99469.69
2022-10-07T18:44:42.919Z,99472.25
2022-10-07T18:47:11.343Z,99467.16
2022-10-07T18:49:39.727Z,99462.06
2022-10-07T18:52:08.322Z,99466.91
2022-10-07T18:54:36.689Z,99459.75
2022-10-07T18:57:05.376Z,99444.22
2022-10-07T18:59:33.804Z,99449.06
2022-10-07T19:02:02.301Z,99450.31
2022-10-07T19:04:31.913Z,99440.38
2022-10-07T19:07:00.296Z,99451.34
2022-10-07T19:09:28.739Z,99456.19
2022-10-07T19:11:57.134Z,99451.84
2022-10-07T19:14:30.883Z,99457.47
2022-10-07T19:16:59.497Z,99453.88
2022-10-07T19:19:27.959Z,99446.75
2022-10-07T19:21:57.035Z,99438.84
2022-10-07T19:24:43.691Z,99445.22
2022-10-07T19:27:12.222Z,99442.16
2022-10-07T19:29:40.598Z,99439.38
2022-10-07T19:32:09.216Z,99433.00
2022-10-07T19:34:37.805Z,99441.16
2022-10-07T19:37:06.507Z,99441.16
2022-10-07T19:39:35.233Z,99442.44
2022-10-07T19:42:03.714Z,99440.91
2022-10-07T19:44:33.252Z,99435.81
2022-10-07T19:47:02.457Z,99435.81
2022-10-07T19:49:30.778Z,99431.47
2022-10-07T19:51:59.175Z,99432.75
2022-10-07T19:54:27.687Z,99436.84
2022-10-07T19:56:56.031Z,99437.34
2022-10-07T19:59:24.874Z,99430.97
2022-10-07T20:01:54.921Z,99430.22
2022-10-07T20:04:25.401Z,99431.44
2022-10-07T20:06:53.880Z,99440.63
2022-10-07T20:09:23.423Z,99436.28
2022-10-07T20:11:51.833Z,99442.66
2022-10-07T20:14:20.611Z,99442.66
2022-10-07T20:16:49.011Z,99449.84
2022-10-07T20:19:20.502Z,99457.44
2022-10-07T20:21:49.209Z,99458.25
2022-10-07T20:24:18.210Z,99449.84
2022-10-07T20:26:47.044Z,99442.94
2022-10-07T20:29:19.389Z,99447.03
2022-10-07T20:31:49.923Z,99449.03
2022-10-07T20:34:19.988Z,99447.78
2022-10-07T20:36:51.224Z,99447.03
2022-10-07T20:39:39.775Z,99454.16
2022-10-07T20:42:22.319Z,99457.44
2022-10-07T20:44:51.641Z,99455.16
2022-10-07T20:47:21.216Z,99450.06
2022-10-07T20:49:51.814Z,99457.72
2022-10-07T20:52:23.079Z,99456.94
2022-10-07T20:54:52.513Z,99448.53
2022-10-07T20:57:26.704Z,99445.44
2022-10-07T20:59:55.969Z,99441.88
2022-10-07T21:02:25.782Z,99450.81
2022-10-07T21:04:54.524Z,99447.22
2022-10-07T21:07:23.207Z,99447.22
2022-10-07T21:09:51.794Z,99438.81
2022-10-07T21:12:20.186Z,99441.63
2022-10-07T21:14:49.438Z,99442.91
2022-10-07T21:17:18.103Z,99432.19
2022-10-07T21:19:46.698Z,99440.59
2022-10-07T21:22:15.081Z,99435.50
2022-10-07T21:24:43.463Z,99434.75
2022-10-07T21:27:12.352Z,99430.41
2022-10-07T21:29:41.473Z,99425.56
2022-10-07T21:32:12.174Z,99433.22
2022-10-07T21:34:41.138Z,99428.38
2022-10-07T21:37:09.563Z,99420.47
2022-10-07T21:39:39.075Z,99425.56
2022-10-07T21:42:07.529Z,99422.00
2022-10-07T21:44:36.522Z,99417.16
2022-10-07T21:47:05.937Z,99425.56
2022-10-07T21:49:34.403Z,99415.66
2022-10-07T21:52:02.794Z,99424.06
2022-10-07T21:54:31.292Z,99422.53
2022-10-07T21:56:59.790Z,99423.78
2022-10-07T21:59:28.204Z,99422.28
2022-10-07T22:01:56.816Z,99426.59
2022-10-07T22:04:25.921Z,99424.31
2022-10-07T22:07:12.495Z,99424.31
2022-10-07T22:09:40.844Z,99420.75
2022-10-07T22:12:09.826Z,99420.75
2022-10-07T22:14:38.920Z,99425.59
2022-10-07T22:17:07.264Z,99432.47
2022-10-07T22:19:35.805Z,99435.25
2022-10-07T22:22:04.308Z,99430.94
2022-10-07T22:24:32.657Z,99430.16
2022-10-07T22:27:01.500Z,99427.63
2022-10-07T22:29:30.613Z,99423.28
2022-10-07T22:31:58.969Z,99430.16
2022-10-07T22:34:45.542Z,99425.84
2022-10-07T22:37:13.938Z,99440.38
2022-10-07T22:39:42.391Z,99436.03
2022-10-07T22:42:10.824Z,99434.50
2022-10-07T22:44:39.337Z,99442.91
2022-10-07T22:47:07.663Z,99440.09
2022-10-07T22:49:36.091Z,99438.53
2022-10-07T22:52:04.648Z,99444.16
2022-10-07T22:54:33.062Z,99446.94
2022-10-07T22:57:01.498Z,99456.63
2022-10-07T22:59:29.902Z,99454.34
2022-10-07T23:01:58.246Z,99463.50
2022-10-07T23:04:27.441Z,99464.78
2022-10-07T23:06:55.825Z,99473.94
2022-10-07T23:09:24.178Z,99464.53
2022-10-07T23:11:52.603Z,99480.06
2022-10-07T23:14:21.086Z,99463.25
2022-10-07T23:16:49.392Z,99473.69
2022-10-07T23:19:17.704Z,99479.81
2022-10-07T23:21:46.150Z,99487.44
2022-10-07T23:24:14.879Z,99484.66
2022-10-07T23:26:47.005Z,99494.31
2022-10-07T23:29:15.548Z,99496.34
2022-10-07T23:31:45.674Z,99503.50
2022-10-07T23:34:15.055Z,99509.09
2022-10-07T23:36:43.549Z,99512.66
2022-10-07T23:39:12.486Z,99514.19
2022-10-07T23:41:41.243Z,99520.81
2022-10-07T23:44:09.771Z,99527.94
2022-10-07T23:46:38.154Z,99523.88
2022-10-07T23:49:07.394Z,99530.53
2022-10-07T23:51:35.757Z,99536.41
2022-10-07T23:54:05.693Z,99533.84
2022-10-07T23:56:34.718Z,99536.91
2022-10-07T23:59:03.985Z,99552.44
